createdAt,value
2023-05-15T00:00:13.272Z,9.60
2023-05-15T00:02:44.040Z,9.50
2023-05-15T00:05:13.121Z,9.50
2023-05-15T00:07:42.083Z,9.50
2023-05-15T00:10:10.536Z,9.50
2023-05-15T00:12:38.669Z,9.50
2023-05-15T00:15:07.941Z,9.50
2023-05-15T00:17:36.144Z,9.50
2023-05-15T00:20:06.871Z,9.50
2023-05-15T00:22:35.126Z,9.50
2023-05-15T00:25:03.242Z,9.50
2023-05-15T00:27:31.424Z,9.50
2023-05-15T00:29:59.759Z,9.50
2023-05-15T00:32:27.926Z,9.50
2023-05-15T00:34:56.061Z,9.50
2023-05-15T00:37:26.160Z,9.50
2023-05-15T00:39:54.316Z,9.50
2023-05-15T00:42:23.294Z,9.50
2023-05-15T00:44:53.510Z,9.50
2023-05-15T00:47:23.447Z,9.50
2023-05-15T00:49:53.075Z,9.50
2023-05-15T00:52:22.225Z,9.50
2023-05-15T00:54:51.711Z,9.50
2023-05-15T00:57:21.389Z,9.60
2023-05-15T00:59:50.937Z,9.60
2023-05-15T01:05:58.071Z,9.50
2023-05-15T01:09:21.210Z,9.50
2023-05-15T01:11:54.632Z,9.50
2023-05-15T01:14:22.854Z,9.40
2023-05-15T01:16:51.474Z,9.40
2023-05-15T01:19:19.937Z,9.40
2023-05-15T01:22:10.585Z,9.40
2023-05-15T01:25:06.287Z,9.40
2023-05-15T01:27:40.701Z,9.40
2023-05-15T01:30:17.826Z,9.40
2023-05-15T01:32:55.301Z,9.30
2023-05-15T01:35:29.697Z,9.30
2023-05-15T01:38:13.904Z,9.30
2023-05-15T01:40:43.382Z,9.30
2023-05-15T01:43:16.853Z,9.20
2023-05-15T01:45:46.066Z,9.20
2023-05-15T01:48:16.193Z,9.20
2023-05-15T01:50:46.731Z,9.20
2023-05-15T01:53:16.311Z,9.20
2023-05-15T01:55:45.555Z,9.20
2023-05-15T01:58:16.809Z,9.20
2023-05-15T02:00:46.027Z,9.20
2023-05-15T02:03:15.267Z,9.10
2023-05-15T02:05:44.029Z,9.10
2023-05-15T02:08:13.624Z,9.10
2023-05-15T02:10:42.441Z,9.00
2023-05-15T02:13:11.270Z,9.00
2023-05-15T02:15:40.961Z,9.00
2023-05-15T02:18:09.164Z,9.00
2023-05-15T02:20:37.406Z,9.00
2023-05-15T02:23:05.469Z,9.00
2023-05-15T02:25:43.575Z,9.00
2023-05-15T02:28:18.576Z,9.10
2023-05-15T02:34:37.666Z,9.20
2023-05-15T02:37:09.411Z,9.30
2023-05-15T02:39:39.876Z,9.40
2023-05-15T02:42:10.109Z,9.40
2023-05-15T02:44:40.225Z,9.40
2023-05-15T02:47:09.497Z,9.40
2023-05-15T02:49:40.656Z,9.40
2023-05-15T02:52:08.912Z,9.50
2023-05-15T02:54:37.030Z,9.50
2023-05-15T02:57:05.654Z,9.40
2023-05-15T02:59:33.805Z,9.40
2023-05-15T03:02:03.570Z,9.40
2023-05-15T03:04:31.873Z,9.40
2023-05-15T03:07:01.467Z,9.40
2023-05-15T03:09:32.578Z,9.40
2023-05-15T03:12:00.747Z,9.40
2023-05-15T03:14:29.015Z,9.40
2023-05-15T03:16:57.216Z,9.30
2023-05-15T03:19:25.500Z,9.40
2023-05-15T03:21:53.616Z,9.30
2023-05-15T03:24:23.131Z,9.40
2023-05-15T03:26:51.253Z,9.40
2023-05-15T03:29:19.340Z,9.30
2023-05-15T03:31:47.689Z,9.40
2023-05-15T03:34:15.874Z,9.40
2023-05-15T03:36:44.049Z,9.40
2023-05-15T03:39:12.331Z,9.30
2023-05-15T03:41:41.863Z,9.30
2023-05-15T03:44:09.996Z,9.30
2023-05-15T03:46:38.276Z,9.30
2023-05-15T03:49:06.454Z,9.30
2023-05-15T03:51:34.576Z,9.30
2023-05-15T03:54:05.162Z,9.30
2023-05-15T03:56:33.547Z,9.20
2023-05-15T03:59:03.167Z,9.20
2023-05-15T04:01:31.378Z,9.30
2023-05-15T04:03:59.527Z,9.30
2023-05-15T04:06:27.628Z,9.40
2023-05-15T04:08:55.875Z,9.40
2023-05-15T04:11:25.516Z,9.30
2023-05-15T04:13:53.722Z,9.30
2023-05-15T04:16:23.283Z,9.30
2023-05-15T04:18:51.390Z,9.30
2023-05-15T04:21:19.740Z,9.30
2023-05-15T04:23:47.838Z,9.20
2023-05-15T04:26:15.955Z,9.20
2023-05-15T04:28:52.364Z,9.20
2023-05-15T04:31:26.036Z,9.10
2023-05-15T04:33:54.283Z,9.20
2023-05-15T04:36:22.932Z,9.20
2023-05-15T04:38:51.679Z,9.20
2023-05-15T04:41:19.802Z,9.30
2023-05-15T04:44:06.826Z,9.30
2023-05-15T04:46:39.704Z,9.40
2023-05-15T04:49:07.974Z,9.40
2023-05-15T04:51:36.151Z,9.40
2023-05-15T04:54:04.707Z,9.40
2023-05-15T04:56:33.330Z,9.40
2023-05-15T04:59:01.522Z,9.30
2023-05-15T05:01:29.947Z,9.30
2023-05-15T05:03:59.601Z,9.30
2023-05-15T05:06:28.638Z,9.40
2023-05-15T05:08:59.200Z,9.40
2023-05-15T05:11:27.343Z,9.40
2023-05-15T05:13:55.404Z,9.40
2023-05-15T05:16:23.861Z,9.40
2023-05-15T05:18:52.055Z,9.40
2023-05-15T05:21:21.547Z,9.50
2023-05-15T05:23:49.636Z,9.50
2023-05-15T05:26:17.738Z,9.50
2023-05-15T05:28:45.899Z,9.50
2023-05-15T05:31:14.227Z,9.50
2023-05-15T05:33:42.424Z,9.60
2023-05-15T05:36:11.051Z,9.60
2023-05-15T05:38:40.590Z,9.70
2023-05-15T05:41:08.756Z,9.70
2023-05-15T05:43:36.937Z,9.70
2023-05-15T05:46:05.138Z,9.70
2023-05-15T05:48:33.261Z,9.80
2023-05-15T05:51:01.393Z,9.80
2023-05-15T05:53:30.835Z,9.80
2023-05-15T05:56:00.302Z,9.80
2023-05-15T05:58:28.509Z,9.80
2023-05-15T06:00:57.002Z,9.80
2023-05-15T06:03:26.027Z,9.90
2023-05-15T06:05:54.484Z,9.90
2023-05-15T06:08:22.748Z,9.90
2023-05-15T06:10:50.904Z,9.90
2023-05-15T06:13:20.390Z,9.90
2023-05-15T06:15:48.883Z,9.90
2023-05-15T06:18:17.038Z,9.90
2023-05-15T06:20:45.147Z,9.80
2023-05-15T06:23:13.472Z,9.90
2023-05-15T06:25:41.732Z,9.90
2023-05-15T06:28:09.829Z,10.00
2023-05-15T06:30:39.534Z,10.00
2023-05-15T06:33:07.746Z,10.00
2023-05-15T06:35:36.351Z,10.00
2023-05-15T06:38:04.740Z,10.10
2023-05-15T06:40:32.980Z,10.20
2023-05-15T06:43:01.136Z,10.30
2023-05-15T06:45:29.759Z,10.30
2023-05-15T06:48:01.575Z,10.40
2023-05-15T06:50:30.412Z,10.40
2023-05-15T06:52:58.484Z,10.50
2023-05-15T06:55:26.840Z,10.60
2023-05-15T06:57:55.319Z,10.60
2023-05-15T07:00:23.599Z,10.70
2023-05-15T07:02:51.721Z,10.80
2023-05-15T07:05:21.900Z,10.70
2023-05-15T07:07:50.046Z,10.80
2023-05-15T07:10:18.511Z,10.80
2023-05-15T07:12:46.751Z,10.80
2023-05-15T07:15:14.958Z,10.90
2023-05-15T07:17:43.391Z,11.00
2023-05-15T07:20:12.162Z,10.90
2023-05-15T07:22:52.015Z,11.00
2023-05-15T07:25:25.066Z,11.00
2023-05-15T07:27:53.749Z,11.10
2023-05-15T07:30:22.019Z,11.10
2023-05-15T07:32:50.610Z,11.10
2023-05-15T07:35:19.523Z,11.30
2023-05-15T07:37:49.048Z,11.50
2023-05-15T07:40:17.486Z,11.50
2023-05-15T07:42:45.869Z,11.70
2023-05-15T07:45:14.121Z,11.70
2023-05-15T07:47:46.156Z,11.80
2023-05-15T07:50:14.544Z,11.60
2023-05-15T07:52:43.261Z,11.50
2023-05-15T07:55:13.385Z,11.50
2023-05-15T07:57:41.503Z,11.50
2023-05-15T08:00:12.807Z,11.60
2023-05-15T08:02:41.200Z,12.00
2023-05-15T08:05:10.169Z,12.20
2023-05-15T08:07:38.703Z,12.50
2023-05-15T08:10:08.142Z,12.70
2023-05-15T08:12:38.236Z,12.60
2023-05-15T08:15:07.158Z,12.60
2023-05-15T08:17:35.615Z,12.70
2023-05-15T08:20:04.989Z,12.90
2023-05-15T08:22:33.319Z,13.00
2023-05-15T08:25:03.808Z,12.90
2023-05-15T08:27:32.180Z,12.80
2023-05-15T08:30:01.689Z,12.70
2023-05-15T08:32:29.875Z,12.70
2023-05-15T08:34:58.874Z,12.70
2023-05-15T08:37:27.032Z,12.80
2023-05-15T08:39:55.204Z,13.00
2023-05-15T08:42:29.521Z,13.40
2023-05-15T08:44:58.192Z,13.60
2023-05-15T08:47:30.394Z,13.60
2023-05-15T08:50:07.184Z,13.60
2023-05-15T08:52:36.200Z,13.70
2023-05-15T08:55:05.398Z,13.90
2023-05-15T08:57:34.852Z,14.10
2023-05-15T09:00:08.260Z,14.30
2023-05-15T09:02:39.245Z,14.30
2023-05-15T09:05:08.608Z,14.20
2023-05-15T09:07:38.948Z,14.10
2023-05-15T09:10:08.412Z,14.10
2023-05-15T09:12:39.340Z,14.10
2023-05-15T09:15:11.661Z,14.10
2023-05-15T09:17:43.555Z,14.00
2023-05-15T09:20:27.614Z,14.00
2023-05-15T09:22:56.022Z,14.00
2023-05-15T09:25:35.786Z,14.10
2023-05-15T09:28:04.025Z,14.00
2023-05-15T09:30:32.496Z,13.90
2023-05-15T09:33:03.807Z,13.90
2023-05-15T09:35:36.330Z,13.80
2023-05-15T09:38:08.800Z,13.80
2023-05-15T09:40:37.425Z,13.70
2023-05-15T09:43:05.629Z,13.50
2023-05-15T09:45:33.903Z,13.50
2023-05-15T09:48:06.463Z,13.40
2023-05-15T09:50:37.049Z,13.40
2023-05-15T09:53:05.889Z,13.40
2023-05-15T09:55:34.875Z,13.40
2023-05-15T09:58:08.435Z,13.50
2023-05-15T10:00:47.701Z,13.60
2023-05-15T10:03:20.001Z,13.70
2023-05-15T10:05:48.511Z,13.80
2023-05-15T10:08:17.340Z,14.00
2023-05-15T10:10:46.904Z,14.20
2023-05-15T10:13:15.162Z,14.40
2023-05-15T10:15:44.155Z,14.60
2023-05-15T10:18:14.159Z,14.70
2023-05-15T10:20:44.009Z,14.80
2023-05-15T10:23:13.472Z,14.80
2023-05-15T10:25:45.864Z,14.70
2023-05-15T10:28:15.644Z,14.50
2023-05-15T10:30:44.299Z,14.40
2023-05-15T10:33:14.311Z,14.20
2023-05-15T10:35:44.335Z,14.10
2023-05-15T10:38:13.777Z,14.00
2023-05-15T10:40:42.718Z,13.90
2023-05-15T10:43:12.520Z,13.80
2023-05-15T10:45:41.329Z,13.70
2023-05-15T10:48:12.454Z,13.60
2023-05-15T10:50:40.952Z,13.70
2023-05-15T10:53:12.935Z,13.60
2023-05-15T10:55:41.090Z,13.60
2023-05-15T10:58:12.781Z,13.60
2023-05-15T11:00:47.485Z,13.70
2023-05-15T11:03:16.593Z,13.70
2023-05-15T11:06:09.741Z,13.80
2023-05-15T11:08:40.840Z,13.80
2023-05-15T11:11:08.941Z,13.70
2023-05-15T11:14:13.454Z,13.70
2023-05-15T11:17:00.992Z,13.70
2023-05-15T11:19:37.481Z,13.60
2023-05-15T11:22:18.725Z,13.60
2023-05-15T11:24:53.424Z,13.50
2023-05-15T11:27:23.163Z,13.50
2023-05-15T11:30:12.545Z,13.40
2023-05-15T11:32:45.056Z,13.40
2023-05-15T11:35:14.063Z,13.40
2023-05-15T11:37:47.850Z,13.30
2023-05-15T11:40:21.549Z,13.20
2023-05-15T11:43:04.767Z,13.10
2023-05-15T11:45:36.665Z,13.00
2023-05-15T11:48:07.024Z,13.00
2023-05-15T11:50:36.402Z,13.00
2023-05-15T11:53:06.387Z,12.90
2023-05-15T11:55:37.976Z,12.90
2023-05-15T11:58:06.737Z,12.80
2023-05-15T12:00:35.355Z,12.80
2023-05-15T12:03:04.971Z,12.80
2023-05-15T12:05:33.290Z,12.80
2023-05-15T12:08:03.247Z,12.90
2023-05-15T12:10:32.565Z,13.00
2023-05-15T12:13:02.398Z,13.00
2023-05-15T12:15:30.585Z,13.00
2023-05-15T12:17:58.729Z,13.00
2023-05-15T12:20:27.390Z,12.80
2023-05-15T12:26:36.986Z,12.60
2023-05-15T12:29:06.957Z,12.60
2023-05-15T12:31:36.759Z,12.60
2023-05-15T12:34:05.220Z,12.50
2023-05-15T12:36:33.496Z,12.50
2023-05-15T12:39:07.864Z,12.50
2023-05-15T12:41:39.008Z,12.50
2023-05-15T12:44:16.653Z,12.50
2023-05-15T12:46:44.830Z,12.50
2023-05-15T12:49:13.517Z,12.50
2023-05-15T12:51:44.591Z,12.60
2023-05-15T12:54:19.369Z,12.70
2023-05-15T12:56:48.806Z,12.80
2023-05-15T12:59:18.337Z,12.70
2023-05-15T13:01:46.774Z,12.60
2023-05-15T13:04:17.310Z,12.50
2023-05-15T13:06:47.968Z,12.50
2023-05-15T13:09:22.962Z,12.50
2023-05-15T13:11:51.208Z,12.50
2023-05-15T13:14:22.758Z,12.50
2023-05-15T13:16:51.173Z,12.50
2023-05-15T13:19:19.790Z,12.50
2023-05-15T13:21:50.792Z,12.50
2023-05-15T13:24:18.985Z,12.50
2023-05-15T13:26:47.301Z,12.50
2023-05-15T13:29:15.902Z,12.50
2023-05-15T13:31:45.645Z,12.40
2023-05-15T13:34:14.061Z,12.30
2023-05-15T13:36:42.143Z,12.30
2023-05-15T13:39:10.308Z,12.20
2023-05-15T13:41:39.151Z,12.20
2023-05-15T13:44:07.348Z,12.30
2023-05-15T13:46:35.572Z,12.30
2023-05-15T13:49:05.869Z,12.40
2023-05-15T13:51:35.742Z,12.40
2023-05-15T13:54:03.891Z,12.40
2023-05-15T13:56:32.327Z,12.40
2023-05-15T13:59:00.455Z,12.50
2023-05-15T14:01:28.619Z,12.50
2023-05-15T14:03:57.060Z,12.40
2023-05-15T14:06:30.430Z,12.30
2023-05-15T14:08:58.936Z,12.20
2023-05-15T14:11:27.096Z,12.20
2023-05-15T14:13:55.219Z,12.10
2023-05-15T14:16:23.674Z,12.10
2023-05-15T14:18:51.885Z,12.10
2023-05-15T14:21:20.106Z,12.20
2023-05-15T14:23:49.799Z,12.20
2023-05-15T14:26:17.929Z,12.10
2023-05-15T14:28:46.162Z,12.00
2023-05-15T14:31:14.503Z,12.00
2023-05-15T14:33:42.706Z,11.90
2023-05-15T14:36:10.996Z,11.80
2023-05-15T14:38:39.498Z,11.80
2023-05-15T14:41:09.420Z,11.90
2023-05-15T14:43:37.625Z,11.90
2023-05-15T14:46:06.680Z,12.00
2023-05-15T14:48:36.211Z,12.00
2023-05-15T14:51:04.404Z,12.10
2023-05-15T14:53:32.778Z,12.20
2023-05-15T14:56:00.867Z,12.20
2023-05-15T14:58:30.686Z,12.30
2023-05-15T15:00:58.917Z,12.30
2023-05-15T15:03:28.990Z,12.30
2023-05-15T15:05:57.658Z,12.30
2023-05-15T15:08:26.572Z,12.20
2023-05-15T15:10:54.729Z,12.20
2023-05-15T15:13:24.092Z,12.00
2023-05-15T15:15:53.799Z,12.10
2023-05-15T15:18:22.214Z,12.20
2023-05-15T15:20:50.652Z,12.40
2023-05-15T15:23:18.900Z,12.50
2023-05-15T15:25:47.061Z,12.70
2023-05-15T15:28:15.201Z,12.70
2023-05-15T15:30:43.294Z,12.80
2023-05-15T15:33:12.793Z,12.90
2023-05-15T15:35:41.479Z,12.80
2023-05-15T15:38:11.485Z,12.70
2023-05-15T15:40:39.650Z,12.70
2023-05-15T15:43:07.804Z,12.70
2023-05-15T15:45:35.997Z,12.80
2023-05-15T15:48:04.396Z,12.80
2023-05-15T15:50:34.228Z,12.80
2023-05-15T15:53:02.378Z,12.90
2023-05-15T15:55:30.529Z,12.90
2023-05-15T15:57:58.774Z,13.00
2023-05-15T16:00:27.034Z,12.90
2023-05-15T16:02:55.360Z,12.90
2023-05-15T16:05:23.663Z,12.90
2023-05-15T16:07:53.173Z,12.80
2023-05-15T16:10:21.265Z,12.80
2023-05-15T16:12:49.408Z,12.80
2023-05-15T16:15:23.315Z,12.80
2023-05-15T16:17:54.376Z,12.70
2023-05-15T16:20:23.490Z,12.50
2023-05-15T16:22:53.611Z,12.40
2023-05-15T16:25:21.980Z,12.40
2023-05-15T16:27:50.185Z,12.30
2023-05-15T16:30:18.486Z,12.20
2023-05-15T16:32:46.990Z,12.20
2023-05-15T16:35:15.168Z,12.20
2023-05-15T16:37:43.413Z,12.20
2023-05-15T16:40:15.320Z,12.30
2023-05-15T16:42:43.706Z,12.30
2023-05-15T16:45:12.100Z,12.20
2023-05-15T16:47:41.468Z,12.00
2023-05-15T16:50:10.380Z,11.90
2023-05-15T16:52:45.248Z,11.90
2023-05-15T16:55:16.706Z,11.80
2023-05-15T16:57:45.705Z,11.80
2023-05-15T17:00:15.088Z,11.70
2023-05-15T17:02:43.574Z,11.80
2023-05-15T17:05:13.973Z,11.80
2023-05-15T17:07:43.154Z,11.80
2023-05-15T17:10:12.604Z,11.80
2023-05-15T17:12:42.302Z,11.80
2023-05-15T17:15:11.140Z,11.70
2023-05-15T17:17:39.413Z,11.60
2023-05-15T17:20:08.561Z,11.60
2023-05-15T17:22:36.703Z,11.50
2023-05-15T17:25:07.158Z,11.50
2023-05-15T17:27:39.739Z,11.40
2023-05-15T17:30:10.446Z,11.40
2023-05-15T17:32:38.774Z,11.40
2023-05-15T17:35:08.205Z,11.40
2023-05-15T17:37:36.766Z,11.30
2023-05-15T17:40:05.828Z,11.40
2023-05-15T17:42:34.390Z,11.40
2023-05-15T17:45:02.890Z,11.40
2023-05-15T17:47:32.461Z,11.40
2023-05-15T17:50:00.606Z,11.40
2023-05-15T17:52:31.344Z,11.40
2023-05-15T17:54:59.461Z,11.40
2023-05-15T17:57:27.618Z,11.30
2023-05-15T17:59:55.789Z,11.30
2023-05-15T18:02:23.916Z,11.30
2023-05-15T18:04:53.445Z,11.30
2023-05-15T18:07:21.864Z,11.30
2023-05-15T18:09:50.004Z,11.30
2023-05-15T18:12:18.239Z,11.20
2023-05-15T18:14:46.710Z,11.10
2023-05-15T18:17:16.187Z,11.20
2023-05-15T18:19:45.132Z,11.10
2023-05-15T18:22:14.620Z,11.10
2023-05-15T18:24:42.788Z,11.10
2023-05-15T18:27:10.935Z,11.10
2023-05-15T18:29:39.255Z,11.10
2023-05-15T18:32:07.745Z,11.00
2023-05-15T18:34:38.048Z,11.00
2023-05-15T18:37:06.540Z,11.00
2023-05-15T18:39:38.221Z,11.00
2023-05-15T18:42:07.163Z,11.00
2023-05-15T18:44:35.960Z,11.00
2023-05-15T18:47:04.216Z,10.90
2023-05-15T18:49:33.006Z,11.00
2023-05-15T18:52:01.225Z,11.00
2023-05-15T18:54:29.392Z,10.90
2023-05-15T18:56:59.062Z,10.90
2023-05-15T18:59:28.423Z,10.90
2023-05-15T19:01:56.683Z,10.90
2023-05-15T19:04:25.017Z,10.90
2023-05-15T19:06:53.179Z,10.90
2023-05-15T19:09:21.327Z,10.90
2023-05-15T19:11:52.273Z,10.90
2023-05-15T19:14:21.784Z,10.90
2023-05-15T19:16:50.370Z,10.90
2023-05-15T19:19:19.204Z,10.90
2023-05-15T19:21:48.024Z,10.90
2023-05-15T19:24:16.357Z,10.90
2023-05-15T19:26:44.620Z,10.90
2023-05-15T19:29:12.724Z,10.90
2023-05-15T19:31:43.839Z,10.90
2023-05-15T19:34:12.114Z,10.90
2023-05-15T19:36:40.686Z,10.90
2023-05-15T19:39:09.133Z,10.90
2023-05-15T19:41:37.261Z,10.90
2023-05-15T19:44:07.371Z,10.90
2023-05-15T19:46:35.821Z,10.80
2023-05-15T19:49:05.374Z,10.80
2023-05-15T19:51:34.276Z,10.80
2023-05-15T19:54:02.744Z,10.80
2023-05-15T19:56:30.989Z,10.80
2023-05-15T19:59:00.423Z,10.80
2023-05-15T20:01:28.903Z,10.80
2023-05-15T20:03:57.366Z,10.70
2023-05-15T20:06:27.136Z,10.80
2023-05-15T20:12:56.835Z,10.80
2023-05-15T20:15:25.633Z,10.70
2023-05-15T20:17:55.130Z,10.70
2023-05-15T20:20:24.028Z,10.70
2023-05-15T20:22:53.658Z,10.70
2023-05-15T20:25:24.118Z,10.70
2023-05-15T20:27:56.512Z,10.70
2023-05-15T20:30:25.427Z,10.70
2023-05-15T20:32:53.957Z,10.70
2023-05-15T20:35:24.482Z,10.70
2023-05-15T20:37:56.415Z,10.70
2023-05-15T20:40:26.145Z,10.70
2023-05-15T20:42:54.925Z,10.70
2023-05-15T20:45:23.387Z,10.60
2023-05-15T20:47:51.615Z,10.50
2023-05-15T20:50:20.766Z,10.50
2023-05-15T20:52:48.986Z,10.40
2023-05-15T20:55:20.241Z,10.40
2023-05-15T20:57:49.323Z,10.40
2023-05-15T21:00:18.996Z,10.40
2023-05-15T21:02:48.006Z,10.40
2023-05-15T21:05:16.925Z,10.40
2023-05-15T21:07:45.434Z,10.30
2023-05-15T21:10:13.724Z,10.30
2023-05-15T21:12:43.586Z,10.30
2023-05-15T21:15:12.256Z,10.30
2023-05-15T21:17:40.937Z,10.30
2023-05-15T21:20:28.648Z,10.30
2023-05-15T21:22:57.037Z,10.30
2023-05-15T21:25:45.980Z,10.30
2023-05-15T21:28:15.787Z,10.20
2023-05-15T21:30:44.426Z,10.10
2023-05-15T21:33:12.692Z,10.00
2023-05-15T21:35:41.898Z,10.00
2023-05-15T21:38:10.041Z,9.90
2023-05-15T21:41:34.085Z,9.80
2023-05-15T21:47:44.792Z,9.70
2023-05-15T21:50:13.187Z,9.70
2023-05-15T21:52:41.657Z,9.60
2023-05-15T21:55:10.682Z,9.50
2023-05-15T21:57:38.872Z,9.50
2023-05-15T22:00:08.536Z,9.50
2023-05-15T22:02:37.172Z,9.50
2023-05-15T22:05:07.471Z,9.40
2023-05-15T22:07:35.649Z,9.40
2023-05-15T22:10:04.673Z,9.40
2023-05-15T22:12:33.289Z,9.30
2023-05-15T22:15:01.932Z,9.30
2023-05-15T22:17:30.783Z,9.30
2023-05-15T22:20:07.547Z,9.30
2023-05-15T22:22:41.211Z,9.30
2023-05-15T22:25:10.155Z,9.30
2023-05-15T22:27:38.619Z,9.30
2023-05-15T22:30:09.710Z,9.30
2023-05-15T22:32:37.875Z,9.20
2023-05-15T22:35:06.939Z,9.20
2023-05-15T22:37:35.452Z,9.10
2023-05-15T22:40:07.559Z,9.10
2023-05-15T22:42:35.740Z,9.00
2023-05-15T22:45:04.377Z,9.00
2023-05-15T22:47:32.914Z,9.00
2023-05-15T22:50:01.246Z,9.00
2023-05-15T22:52:29.421Z,9.10
2023-05-15T22:54:57.594Z,9.10
2023-05-15T22:57:27.251Z,9.10
2023-05-15T22:59:55.588Z,9.10
2023-05-15T23:02:23.867Z,9.10
2023-05-15T23:04:52.020Z,9.10
2023-05-15T23:07:20.617Z,9.00
2023-05-15T23:09:48.765Z,9.00
2023-05-15T23:12:16.928Z,9.00
2023-05-15T23:14:46.447Z,8.90
2023-05-15T23:17:14.572Z,8.90
2023-05-15T23:19:42.824Z,8.80
2023-05-15T23:22:12.028Z,8.80
2023-05-15T23:24:40.328Z,8.70
2023-05-15T23:27:08.442Z,8.70
2023-05-15T23:29:37.218Z,8.60
2023-05-15T23:32:07.914Z,8.60
2023-05-15T23:34:36.123Z,8.70
2023-05-15T23:37:04.340Z,8.70
2023-05-15T23:39:32.471Z,8.60
2023-05-15T23:42:01.067Z,8.60
2023-05-15T23:44:29.243Z,8.60
2023-05-15T23:46:57.477Z,8.60
2023-05-15T23:49:27.003Z,8.60
2023-05-15T23:51:55.183Z,8.60
2023-05-15T23:54:23.260Z,8.70
2023-05-15T23:56:51.369Z,8.70
2023-05-15T23:59:19.553Z,8.70
